sensor_id;sensor_type;location;lat;lon;timestamp;temperature;humidity
69776;DHT22;57049;51.450;-2.516;2022-07-12T00:01:55;20.12;69.97
69776;DHT22;57049;51.450;-2.516;2022-07-12T00:04:20;20.11;70.27
69776;DHT22;57049;51.450;-2.516;2022-07-12T00:06:46;20.16;70.18
69776;DHT22;57049;51.450;-2.516;2022-07-12T00:09:11;20.15;70.20
69776;DHT22;57049;51.450;-2.516;2022-07-12T00:11:37;20.19;70.16
69776;DHT22;57049;51.450;-2.516;2022-07-12T00:14:04;20.11;71.44
69776;DHT22;57049;51.450;-2.516;2022-07-12T00:16:29;20.04;71.22
69776;DHT22;57049;51.450;-2.516;2022-07-12T00:18:55;19.95;72.21
69776;DHT22;57049;51.450;-2.516;2022-07-12T00:21:20;19.98;71.16
69776;DHT22;57049;51.450;-2.516;2022-07-12T00:23:46;20.11;69.59
69776;DHT22;57049;51.450;-2.516;2022-07-12T00:26:11;20.19;69.16
69776;DHT22;57049;51.450;-2.516;2022-07-12T00:28:37;20.22;68.67
69776;DHT22;57049;51.450;-2.516;2022-07-12T00:31:03;20.15;69.79
69776;DHT22;57049;51.450;-2.516;2022-07-12T00:33:28;20.07;70.12
69776;DHT22;57049;51.450;-2.516;2022-07-12T00:35:54;20.01;69.93
69776;DHT22;57049;51.450;-2.516;2022-07-12T00:38:19;19.95;70.18
69776;DHT22;57049;51.450;-2.516;2022-07-12T00:40:45;19.79;71.75
69776;DHT22;57049;51.450;-2.516;2022-07-12T00:43:11;19.73;71.34
69776;DHT22;57049;51.450;-2.516;2022-07-12T00:45:37;19.64;72.21
69776;DHT22;57049;51.450;-2.516;2022-07-12T00:48:02;19.51;72.30
69776;DHT22;57049;51.450;-2.516;2022-07-12T00:50:28;19.44;72.76
69776;DHT22;57049;51.450;-2.516;2022-07-12T00:52:54;19.44;72.25
69776;DHT22;57049;51.450;-2.516;2022-07-12T00:55:21;19.43;72.60
69776;DHT22;57049;51.450;-2.516;2022-07-12T00:57:47;19.38;72.44
69776;DHT22;57049;51.450;-2.516;2022-07-12T01:00:24;19.36;72.62
69776;DHT22;57049;51.450;-2.516;2022-07-12T01:02:52;19.31;72.54
69776;DHT22;57049;51.450;-2.516;2022-07-12T01:05:17;19.31;72.13
69776;DHT22;57049;51.450;-2.516;2022-07-12T01:07:44;19.31;72.11
69776;DHT22;57049;51.450;-2.516;2022-07-12T01:10:09;19.36;72.16
69776;DHT22;57049;51.450;-2.516;2022-07-12T01:12:35;19.34;72.63
69776;DHT22;57049;51.450;-2.516;2022-07-12T01:15:01;19.37;72.67
69776;DHT22;57049;51.450;-2.516;2022-07-12T01:17:27;19.40;72.90
69776;DHT22;57049;51.450;-2.516;2022-07-12T01:19:54;19.43;72.47
69776;DHT22;57049;51.450;-2.516;2022-07-12T01:22:26;19.41;72.41
69776;DHT22;57049;51.450;-2.516;2022-07-12T01:24:53;19.43;72.34
69776;DHT22;57049;51.450;-2.516;2022-07-12T01:27:18;19.47;72.41
69776;DHT22;57049;51.450;-2.516;2022-07-12T01:29:44;19.40;72.53
69776;DHT22;57049;51.450;-2.516;2022-07-12T01:32:10;19.38;72.93
69776;DHT22;57049;51.450;-2.516;2022-07-12T01:34:54;19.33;72.91
69776;DHT22;57049;51.450;-2.516;2022-07-12T01:37:22;19.27;72.83
69776;DHT22;57049;51.450;-2.516;2022-07-12T01:39:51;19.30;73.14
69776;DHT22;57049;51.450;-2.516;2022-07-12T01:42:18;19.26;73.35
69776;DHT22;57049;51.450;-2.516;2022-07-12T01:44:43;19.20;73.11
69776;DHT22;57049;51.450;-2.516;2022-07-12T01:47:09;19.20;72.70
69776;DHT22;57049;51.450;-2.516;2022-07-12T01:49:35;19.23;72.69
69776;DHT22;57049;51.450;-2.516;2022-07-12T01:52:00;19.22;72.87
69776;DHT22;57049;51.450;-2.516;2022-07-12T01:54:26;19.28;71.81
69776;DHT22;57049;51.450;-2.516;2022-07-12T01:56:52;19.22;73.00
69776;DHT22;57049;51.450;-2.516;2022-07-12T01:59:18;19.09;72.94
69776;DHT22;57049;51.450;-2.516;2022-07-12T02:01:44;19.06;74.05
69776;DHT22;57049;51.450;-2.516;2022-07-12T02:04:10;18.92;74.59
69776;DHT22;57049;51.450;-2.516;2022-07-12T02:06:35;18.89;73.60
69776;DHT22;57049;51.450;-2.516;2022-07-12T02:09:01;18.79;73.90
69776;DHT22;57049;51.450;-2.516;2022-07-12T02:11:26;18.89;73.47
69776;DHT22;57049;51.450;-2.516;2022-07-12T02:13:52;19.02;72.57
69776;DHT22;57049;51.450;-2.516;2022-07-12T02:16:17;19.03;71.50
69776;DHT22;57049;51.450;-2.516;2022-07-12T02:18:43;18.96;72.46
69776;DHT22;57049;51.450;-2.516;2022-07-12T02:21:08;18.88;74.02
69776;DHT22;57049;51.450;-2.516;2022-07-12T02:23:33;18.79;73.16
69776;DHT22;57049;51.450;-2.516;2022-07-12T02:25:59;18.79;72.82
69776;DHT22;57049;51.450;-2.516;2022-07-12T02:28:24;18.99;72.01
69776;DHT22;57049;51.450;-2.516;2022-07-12T02:30:50;18.93;72.40
69776;DHT22;57049;51.450;-2.516;2022-07-12T02:33:15;18.83;72.52
69776;DHT22;57049;51.450;-2.516;2022-07-12T02:35:43;18.75;72.88
69776;DHT22;57049;51.450;-2.516;2022-07-12T02:38:09;18.75;72.61
69776;DHT22;57049;51.450;-2.516;2022-07-12T02:40:34;18.81;72.34
69776;DHT22;57049;51.450;-2.516;2022-07-12T02:43:21;18.71;73.00
69776;DHT22;57049;51.450;-2.516;2022-07-12T02:45:47;18.64;73.31
69776;DHT22;57049;51.450;-2.516;2022-07-12T02:48:13;18.51;74.05
69776;DHT22;57049;51.450;-2.516;2022-07-12T02:50:41;18.48;73.72
69776;DHT22;57049;51.450;-2.516;2022-07-12T02:53:08;18.56;73.55
69776;DHT22;57049;51.450;-2.516;2022-07-12T02:55:34;18.51;73.27
69776;DHT22;57049;51.450;-2.516;2022-07-12T02:57:59;18.42;73.73
69776;DHT22;57049;51.450;-2.516;2022-07-12T03:00:26;18.41;74.45
69776;DHT22;57049;51.450;-2.516;2022-07-12T03:02:51;18.45;73.97
69776;DHT22;57049;51.450;-2.516;2022-07-12T03:05:17;18.47;73.22
69776;DHT22;57049;51.450;-2.516;2022-07-12T03:07:42;18.54;72.66
69776;DHT22;57049;51.450;-2.516;2022-07-12T03:10:08;18.62;72.79
69776;DHT22;57049;51.450;-2.516;2022-07-12T03:12:34;18.66;72.51
69776;DHT22;57049;51.450;-2.516;2022-07-12T03:15:00;18.68;72.52
69776;DHT22;57049;51.450;-2.516;2022-07-12T03:17:25;18.61;72.97
69776;DHT22;57049;51.450;-2.516;2022-07-12T03:19:51;18.59;72.74
69776;DHT22;57049;51.450;-2.516;2022-07-12T03:22:17;18.58;72.61
69776;DHT22;57049;51.450;-2.516;2022-07-12T03:24:42;18.55;72.66
69776;DHT22;57049;51.450;-2.516;2022-07-12T03:27:08;18.52;72.67
69776;DHT22;57049;51.450;-2.516;2022-07-12T03:29:33;18.47;72.86
69776;DHT22;57049;51.450;-2.516;2022-07-12T03:31:58;18.52;72.92
69776;DHT22;57049;51.450;-2.516;2022-07-12T03:34:24;18.51;72.91
69776;DHT22;57049;51.450;-2.516;2022-07-12T03:36:49;18.51;72.58
69776;DHT22;57049;51.450;-2.516;2022-07-12T03:39:15;18.56;72.19
69776;DHT22;57049;51.450;-2.516;2022-07-12T03:41:40;18.49;72.89
69776;DHT22;57049;51.450;-2.516;2022-07-12T03:44:05;18.41;74.68
69776;DHT22;57049;51.450;-2.516;2022-07-12T03:46:32;18.34;74.20
69776;DHT22;57049;51.450;-2.516;2022-07-12T03:48:58;18.38;74.09
69776;DHT22;57049;51.450;-2.516;2022-07-12T03:51:24;18.35;74.75
69776;DHT22;57049;51.450;-2.516;2022-07-12T03:53:50;18.42;75.10
69776;DHT22;57049;51.450;-2.516;2022-07-12T03:56:15;18.47;74.10
69776;DHT22;57049;51.450;-2.516;2022-07-12T03:59:00;18.44;74.04
69776;DHT22;57049;51.450;-2.516;2022-07-12T04:01:26;18.47;73.98
69776;DHT22;57049;51.450;-2.516;2022-07-12T04:03:51;18.49;74.07
69776;DHT22;57049;51.450;-2.516;2022-07-12T04:06:17;18.47;73.89
69776;DHT22;57049;51.450;-2.516;2022-07-12T04:08:42;18.42;73.97
69776;DHT22;57049;51.450;-2.516;2022-07-12T04:11:07;18.48;73.84
69776;DHT22;57049;51.450;-2.516;2022-07-12T04:13:33;18.45;73.78
69776;DHT22;57049;51.450;-2.516;2022-07-12T04:15:59;18.47;73.41
69776;DHT22;57049;51.450;-2.516;2022-07-12T04:18:24;18.47;73.90
69776;DHT22;57049;51.450;-2.516;2022-07-12T04:20:50;18.48;73.84
69776;DHT22;57049;51.450;-2.516;2022-07-12T04:23:15;18.49;73.98
69776;DHT22;57049;51.450;-2.516;2022-07-12T04:25:40;18.56;73.47
69776;DHT22;57049;51.450;-2.516;2022-07-12T04:28:06;18.75;72.49
69776;DHT22;57049;51.450;-2.516;2022-07-12T04:30:31;18.77;72.16
69776;DHT22;57049;51.450;-2.516;2022-07-12T04:32:57;18.82;71.60
69776;DHT22;57049;51.450;-2.516;2022-07-12T04:35:22;18.89;70.92
69776;DHT22;57049;51.450;-2.516;2022-07-12T04:37:48;18.92;70.79
69776;DHT22;57049;51.450;-2.516;2022-07-12T04:40:13;18.93;71.01
69776;DHT22;57049;51.450;-2.516;2022-07-12T04:42:38;18.93;70.88
69776;DHT22;57049;51.450;-2.516;2022-07-12T04:45:04;18.99;70.88
69776;DHT22;57049;51.450;-2.516;2022-07-12T04:47:30;19.02;71.26
69776;DHT22;57049;51.450;-2.516;2022-07-12T04:49:55;19.05;70.66
69776;DHT22;57049;51.450;-2.516;2022-07-12T04:52:21;19.10;70.54
69776;DHT22;57049;51.450;-2.516;2022-07-12T04:54:47;19.07;70.74
69776;DHT22;57049;51.450;-2.516;2022-07-12T04:57:12;19.03;70.86
69776;DHT22;57049;51.450;-2.516;2022-07-12T04:59:37;18.96;71.73
69776;DHT22;57049;51.450;-2.516;2022-07-12T05:02:06;18.92;72.04
69776;DHT22;57049;51.450;-2.516;2022-07-12T05:04:32;18.91;72.56
69776;DHT22;57049;51.450;-2.516;2022-07-12T05:06:59;18.83;73.25
69776;DHT22;57049;51.450;-2.516;2022-07-12T05:09:24;18.79;73.14
69776;DHT22;57049;51.450;-2.516;2022-07-12T05:11:49;18.83;72.58
69776;DHT22;57049;51.450;-2.516;2022-07-12T05:14:17;18.79;73.77
69776;DHT22;57049;51.450;-2.516;2022-07-12T05:16:43;18.79;72.39
69776;DHT22;57049;51.450;-2.516;2022-07-12T05:19:08;18.93;72.04
69776;DHT22;57049;51.450;-2.516;2022-07-12T05:21:33;18.93;72.10
69776;DHT22;57049;51.450;-2.516;2022-07-12T05:24:00;19.00;73.44
69776;DHT22;57049;51.450;-2.516;2022-07-12T05:26:26;19.03;72.48
69776;DHT22;57049;51.450;-2.516;2022-07-12T05:28:51;19.12;72.14
69776;DHT22;57049;51.450;-2.516;2022-07-12T05:31:17;19.17;71.35
69776;DHT22;57049;51.450;-2.516;2022-07-12T05:33:44;19.23;70.75
69776;DHT22;57049;51.450;-2.516;2022-07-12T05:36:09;19.24;71.59
69776;DHT22;57049;51.450;-2.516;2022-07-12T05:38:35;19.33;72.42
69776;DHT22;57049;51.450;-2.516;2022-07-12T05:41:00;19.46;71.74
69776;DHT22;57049;51.450;-2.516;2022-07-12T05:43:25;19.57;71.54
69776;DHT22;57049;51.450;-2.516;2022-07-12T05:45:51;19.70;70.41
69776;DHT22;57049;51.450;-2.516;2022-07-12T05:48:16;19.85;69.00
69776;DHT22;57049;51.450;-2.516;2022-07-12T05:50:42;20.02;67.93
69776;DHT22;57049;51.450;-2.516;2022-07-12T05:53:07;20.12;69.10
69776;DHT22;57049;51.450;-2.516;2022-07-12T05:55:49;20.30;69.69
69776;DHT22;57049;51.450;-2.516;2022-07-12T05:58:15;20.36;66.28
69776;DHT22;57049;51.450;-2.516;2022-07-12T06:00:40;20.46;66.37
69776;DHT22;57049;51.450;-2.516;2022-07-12T06:03:06;20.49;66.59
69776;DHT22;57049;51.450;-2.516;2022-07-12T06:05:31;20.48;66.29
69776;DHT22;57049;51.450;-2.516;2022-07-12T06:07:57;20.30;66.81
69776;DHT22;57049;51.450;-2.516;2022-07-12T06:10:22;20.38;66.86
69776;DHT22;57049;51.450;-2.516;2022-07-12T06:12:48;20.38;67.24
69776;DHT22;57049;51.450;-2.516;2022-07-12T06:15:13;20.26;67.66
69776;DHT22;57049;51.450;-2.516;2022-07-12T06:17:39;20.36;67.91
69776;DHT22;57049;51.450;-2.516;2022-07-12T06:20:05;20.38;67.67
69776;DHT22;57049;51.450;-2.516;2022-07-12T06:22:31;20.46;66.83
69776;DHT22;57049;51.450;-2.516;2022-07-12T06:24:57;20.53;67.59
69776;DHT22;57049;51.450;-2.516;2022-07-12T06:27:22;20.52;66.86
69776;DHT22;57049;51.450;-2.516;2022-07-12T06:29:47;20.73;66.53
69776;DHT22;57049;51.450;-2.516;2022-07-12T06:32:16;20.86;66.69
69776;DHT22;57049;51.450;-2.516;2022-07-12T06:34:43;20.94;67.23
69776;DHT22;57049;51.450;-2.516;2022-07-12T06:37:08;20.91;66.80
69776;DHT22;57049;51.450;-2.516;2022-07-12T06:39:36;21.07;65.53
69776;DHT22;57049;51.450;-2.516;2022-07-12T06:42:02;21.20;65.01
69776;DHT22;57049;51.450;-2.516;2022-07-12T06:44:31;21.21;64.26
69776;DHT22;57049;51.450;-2.516;2022-07-12T06:46:57;21.11;64.80
69776;DHT22;57049;51.450;-2.516;2022-07-12T06:49:23;21.23;64.80
69776;DHT22;57049;51.450;-2.516;2022-07-12T06:51:48;21.55;63.52
69776;DHT22;57049;51.450;-2.516;2022-07-12T06:54:14;21.92;62.56
69776;DHT22;57049;51.450;-2.516;2022-07-12T06:56:39;22.90;60.14
69776;DHT22;57049;51.450;-2.516;2022-07-12T06:59:05;23.89;59.40
69776;DHT22;57049;51.450;-2.516;2022-07-12T07:01:30;24.10;57.45
69776;DHT22;57049;51.450;-2.516;2022-07-12T07:03:56;24.13;56.96
69776;DHT22;57049;51.450;-2.516;2022-07-12T07:06:21;24.48;54.49
69776;DHT22;57049;51.450;-2.516;2022-07-12T07:08:47;25.07;53.62
69776;DHT22;57049;51.450;-2.516;2022-07-12T07:11:12;25.76;52.50
69776;DHT22;57049;51.450;-2.516;2022-07-12T07:13:38;26.95;50.10
69776;DHT22;57049;51.450;-2.516;2022-07-12T07:16:05;27.87;46.72
69776;DHT22;57049;51.450;-2.516;2022-07-12T07:18:30;27.47;46.33
69776;DHT22;57049;51.450;-2.516;2022-07-12T07:20:56;26.22;49.69
69776;DHT22;57049;51.450;-2.516;2022-07-12T07:23:21;27.76;48.24
69776;DHT22;57049;51.450;-2.516;2022-07-12T07:25:46;27.26;48.26
69776;DHT22;57049;51.450;-2.516;2022-07-12T07:28:12;27.46;48.51
69776;DHT22;57049;51.450;-2.516;2022-07-12T07:30:37;28.39;48.34
69776;DHT22;57049;51.450;-2.516;2022-07-12T07:33:25;27.88;48.26
69776;DHT22;57049;51.450;-2.516;2022-07-12T07:35:52;27.43;47.89
69776;DHT22;57049;51.450;-2.516;2022-07-12T07:38:18;27.10;47.12
69776;DHT22;57049;51.450;-2.516;2022-07-12T07:40:44;26.13;49.63
69776;DHT22;57049;51.450;-2.516;2022-07-12T07:43:10;25.60;51.51
69776;DHT22;57049;51.450;-2.516;2022-07-12T07:45:36;25.25;52.94
69776;DHT22;57049;51.450;-2.516;2022-07-12T07:48:02;24.65;55.35
69776;DHT22;57049;51.450;-2.516;2022-07-12T07:50:29;24.44;54.16
69776;DHT22;57049;51.450;-2.516;2022-07-12T07:52:55;24.38;55.14
69776;DHT22;57049;51.450;-2.516;2022-07-12T07:55:20;24.07;55.19
69776;DHT22;57049;51.450;-2.516;2022-07-12T07:57:46;24.00;57.17
69776;DHT22;57049;51.450;-2.516;2022-07-12T08:00:13;23.96;55.65
69776;DHT22;57049;51.450;-2.516;2022-07-12T08:02:39;24.05;57.11
69776;DHT22;57049;51.450;-2.516;2022-07-12T08:05:05;24.44;55.73
69776;DHT22;57049;51.450;-2.516;2022-07-12T08:07:30;25.20;54.02
69776;DHT22;57049;51.450;-2.516;2022-07-12T08:09:56;25.29;52.77
69776;DHT22;57049;51.450;-2.516;2022-07-12T08:12:21;25.32;54.87
69776;DHT22;57049;51.450;-2.516;2022-07-12T08:14:47;24.99;54.76
69776;DHT22;57049;51.450;-2.516;2022-07-12T08:17:15;24.82;53.47
69776;DHT22;57049;51.450;-2.516;2022-07-12T08:19:43;24.79;52.32
69776;DHT22;57049;51.450;-2.516;2022-07-12T08:22:08;24.46;52.93
69776;DHT22;57049;51.450;-2.516;2022-07-12T08:24:35;24.50;52.90
69776;DHT22;57049;51.450;-2.516;2022-07-12T08:27:00;24.51;54.03
69776;DHT22;57049;51.450;-2.516;2022-07-12T08:29:25;24.67;54.03
69776;DHT22;57049;51.450;-2.516;2022-07-12T08:31:51;25.20;54.10
69776;DHT22;57049;51.450;-2.516;2022-07-12T08:34:16;25.65;53.00
69776;DHT22;57049;51.450;-2.516;2022-07-12T08:36:42;26.32;53.80
69776;DHT22;57049;51.450;-2.516;2022-07-12T08:39:07;27.13;49.14
69776;DHT22;57049;51.450;-2.516;2022-07-12T08:41:32;27.68;46.71
69776;DHT22;57049;51.450;-2.516;2022-07-12T08:43:58;27.42;48.65
69776;DHT22;57049;51.450;-2.516;2022-07-12T08:46:23;27.13;50.59
69776;DHT22;57049;51.450;-2.516;2022-07-12T08:48:49;26.49;49.06
69776;DHT22;57049;51.450;-2.516;2022-07-12T08:51:18;26.67;53.00
69776;DHT22;57049;51.450;-2.516;2022-07-12T08:53:44;26.38;52.25
69776;DHT22;57049;51.450;-2.516;2022-07-12T08:56:32;26.34;49.85
69776;DHT22;57049;51.450;-2.516;2022-07-12T08:59:14;26.14;50.83
69776;DHT22;57049;51.450;-2.516;2022-07-12T09:04:15;25.60;53.45
69776;DHT22;57049;51.450;-2.516;2022-07-12T09:06:41;25.56;53.18
69776;DHT22;57049;51.450;-2.516;2022-07-12T09:09:07;25.59;52.39
69776;DHT22;57049;51.450;-2.516;2022-07-12T09:11:38;25.54;53.85
69776;DHT22;57049;51.450;-2.516;2022-07-12T09:14:04;25.62;55.47
69776;DHT22;57049;51.450;-2.516;2022-07-12T09:16:30;25.47;52.58
69776;DHT22;57049;51.450;-2.516;2022-07-12T09:19:16;25.65;52.46
69776;DHT22;57049;51.450;-2.516;2022-07-12T09:21:50;25.59;50.48
69776;DHT22;57049;51.450;-2.516;2022-07-12T09:24:17;25.83;51.53
69776;DHT22;57049;51.450;-2.516;2022-07-12T09:26:42;25.81;51.49
69776;DHT22;57049;51.450;-2.516;2022-07-12T09:29:11;25.97;49.83
69776;DHT22;57049;51.450;-2.516;2022-07-12T09:31:50;25.96;49.70
69776;DHT22;57049;51.450;-2.516;2022-07-12T09:34:55;26.25;50.26
69776;DHT22;57049;51.450;-2.516;2022-07-12T09:37:40;26.13;48.64
69776;DHT22;57049;51.450;-2.516;2022-07-12T09:40:09;26.30;50.63
69776;DHT22;57049;51.450;-2.516;2022-07-12T09:42:35;26.72;49.93
69776;DHT22;57049;51.450;-2.516;2022-07-12T09:45:01;27.06;48.44
69776;DHT22;57049;51.450;-2.516;2022-07-12T09:47:27;28.31;47.19
69776;DHT22;57049;51.450;-2.516;2022-07-12T09:49:55;28.96;45.65
69776;DHT22;57049;51.450;-2.516;2022-07-12T09:52:25;29.08;42.04
69776;DHT22;57049;51.450;-2.516;2022-07-12T09:54:53;28.67;41.91
69776;DHT22;57049;51.450;-2.516;2022-07-12T09:59:44;27.64;45.38
69776;DHT22;57049;51.450;-2.516;2022-07-12T10:02:10;27.44;45.02
69776;DHT22;57049;51.450;-2.516;2022-07-12T10:04:41;27.50;47.29
69776;DHT22;57049;51.450;-2.516;2022-07-12T10:07:08;27.77;45.67
69776;DHT22;57049;51.450;-2.516;2022-07-12T10:09:35;27.64;45.76
69776;DHT22;57049;51.450;-2.516;2022-07-12T10:12:01;27.57;47.99
69776;DHT22;57049;51.450;-2.516;2022-07-12T10:14:27;27.78;46.58
69776;DHT22;57049;51.450;-2.516;2022-07-12T10:16:53;28.18;44.18
69776;DHT22;57049;51.450;-2.516;2022-07-12T10:19:32;28.28;44.25
69776;DHT22;57049;51.450;-2.516;2022-07-12T10:21:59;28.87;44.26
69776;DHT22;57049;51.450;-2.516;2022-07-12T10:29:43;27.76;46.06
69776;DHT22;57049;51.450;-2.516;2022-07-12T10:35:00;27.13;49.18
69776;DHT22;57049;51.450;-2.516;2022-07-12T10:37:27;27.17;48.29
69776;DHT22;57049;51.450;-2.516;2022-07-12T10:42:37;27.24;47.43
69776;DHT22;57049;51.450;-2.516;2022-07-12T10:45:13;26.96;46.29
69776;DHT22;57049;51.450;-2.516;2022-07-12T10:47:55;27.03;46.42
69776;DHT22;57049;51.450;-2.516;2022-07-12T10:50:56;27.24;49.94
69776;DHT22;57049;51.450;-2.516;2022-07-12T10:53:32;27.26;47.57
69776;DHT22;57049;51.450;-2.516;2022-07-12T11:01:06;27.73;45.24
69776;DHT22;57049;51.450;-2.516;2022-07-12T11:03:40;27.77;45.21
69776;DHT22;57049;51.450;-2.516;2022-07-12T11:06:08;27.97;43.56
69776;DHT22;57049;51.450;-2.516;2022-07-12T11:09:07;28.21;47.02
69776;DHT22;57049;51.450;-2.516;2022-07-12T11:11:53;28.11;46.27
69776;DHT22;57049;51.450;-2.516;2022-07-12T11:14:22;27.98;46.45
69776;DHT22;57049;51.450;-2.516;2022-07-12T11:16:49;27.87;46.99
69776;DHT22;57049;51.450;-2.516;2022-07-12T11:19:21;27.88;46.99
69776;DHT22;57049;51.450;-2.516;2022-07-12T11:21:48;28.06;43.70
69776;DHT22;57049;51.450;-2.516;2022-07-12T11:24:21;28.09;45.59
69776;DHT22;57049;51.450;-2.516;2022-07-12T11:26:47;28.00;46.91
69776;DHT22;57049;51.450;-2.516;2022-07-12T11:29:13;28.25;46.94
69776;DHT22;57049;51.450;-2.516;2022-07-12T11:31:39;28.41;47.25
69776;DHT22;57049;51.450;-2.516;2022-07-12T11:34:04;28.29;45.92
69776;DHT22;57049;51.450;-2.516;2022-07-12T11:36:30;27.95;46.74
69776;DHT22;57049;51.450;-2.516;2022-07-12T11:38:56;27.88;47.47
69776;DHT22;57049;51.450;-2.516;2022-07-12T11:41:21;27.80;44.90
69776;DHT22;57049;51.450;-2.516;2022-07-12T11:43:48;27.91;47.66
69776;DHT22;57049;51.450;-2.516;2022-07-12T11:46:14;28.04;48.92
69776;DHT22;57049;51.450;-2.516;2022-07-12T11:48:41;27.97;46.91
69776;DHT22;57049;51.450;-2.516;2022-07-12T11:51:10;28.09;46.73
69776;DHT22;57049;51.450;-2.516;2022-07-12T11:53:37;28.18;47.32
69776;DHT22;57049;51.450;-2.516;2022-07-12T11:56:04;28.60;44.40
69776;DHT22;57049;51.450;-2.516;2022-07-12T11:58:30;28.73;46.65
69776;DHT22;57049;51.450;-2.516;2022-07-12T12:00:58;29.13;47.90
69776;DHT22;57049;51.450;-2.516;2022-07-12T12:03:24;29.08;45.77
69776;DHT22;57049;51.450;-2.516;2022-07-12T12:05:52;29.71;46.49
69776;DHT22;57049;51.450;-2.516;2022-07-12T12:08:18;29.90;46.85
69776;DHT22;57049;51.450;-2.516;2022-07-12T12:10:53;29.92;44.21
69776;DHT22;57049;51.450;-2.516;2022-07-12T12:13:18;29.88;44.33
69776;DHT22;57049;51.450;-2.516;2022-07-12T12:15:56;29.46;46.55
69776;DHT22;57049;51.450;-2.516;2022-07-12T12:21:07;28.70;46.06
69776;DHT22;57049;51.450;-2.516;2022-07-12T12:23:34;28.55;44.33
69776;DHT22;57049;51.450;-2.516;2022-07-12T12:28:48;28.56;46.73
69776;DHT22;57049;51.450;-2.516;2022-07-12T12:31:16;28.32;47.17
69776;DHT22;57049;51.450;-2.516;2022-07-12T12:33:46;28.32;47.39
69776;DHT22;57049;51.450;-2.516;2022-07-12T12:38:43;28.49;47.32
69776;DHT22;57049;51.450;-2.516;2022-07-12T12:41:10;28.29;48.78
69776;DHT22;57049;51.450;-2.516;2022-07-12T12:43:35;28.67;48.40
69776;DHT22;57049;51.450;-2.516;2022-07-12T12:46:01;29.07;47.66
69776;DHT22;57049;51.450;-2.516;2022-07-12T12:48:28;29.04;48.97
69776;DHT22;57049;51.450;-2.516;2022-07-12T12:51:10;29.30;48.13
69776;DHT22;57049;51.450;-2.516;2022-07-12T12:53:40;29.28;47.29
69776;DHT22;57049;51.450;-2.516;2022-07-12T12:56:08;29.55;47.56
69776;DHT22;57049;51.450;-2.516;2022-07-12T12:58:34;29.51;47.47
69776;DHT22;57049;51.450;-2.516;2022-07-12T13:01:00;29.74;43.14
69776;DHT22;57049;51.450;-2.516;2022-07-12T13:03:25;30.18;44.52
69776;DHT22;57049;51.450;-2.516;2022-07-12T13:05:52;29.84;44.64
69776;DHT22;57049;51.450;-2.516;2022-07-12T13:08:17;30.29;40.59
69776;DHT22;57049;51.450;-2.516;2022-07-12T13:10:44;30.30;40.67
69776;DHT22;57049;51.450;-2.516;2022-07-12T13:13:11;30.29;44.23
69776;DHT22;57049;51.450;-2.516;2022-07-12T13:15:37;29.98;44.26
69776;DHT22;57049;51.450;-2.516;2022-07-12T13:18:04;29.92;44.36
69776;DHT22;57049;51.450;-2.516;2022-07-12T13:20:30;29.84;45.13
69776;DHT22;57049;51.450;-2.516;2022-07-12T13:22:56;29.82;44.40
69776;DHT22;57049;51.450;-2.516;2022-07-12T13:25:22;29.65;42.94
69776;DHT22;57049;51.450;-2.516;2022-07-12T13:27:48;29.64;44.37
69776;DHT22;57049;51.450;-2.516;2022-07-12T13:30:15;29.68;43.35
69776;DHT22;57049;51.450;-2.516;2022-07-12T13:32:41;29.86;43.21
69776;DHT22;57049;51.450;-2.516;2022-07-12T13:35:09;30.18;43.44
69776;DHT22;57049;51.450;-2.516;2022-07-12T13:37:37;30.09;42.38
69776;DHT22;57049;51.450;-2.516;2022-07-12T13:40:04;29.86;42.90
69776;DHT22;57049;51.450;-2.516;2022-07-12T13:42:39;29.88;43.35
69776;DHT22;57049;51.450;-2.516;2022-07-12T13:45:06;30.23;44.94
69776;DHT22;57049;51.450;-2.516;2022-07-12T13:47:31;30.29;44.48
69776;DHT22;57049;51.450;-2.516;2022-07-12T13:49:57;30.56;42.20
69776;DHT22;57049;51.450;-2.516;2022-07-12T13:52:22;30.71;43.37
69776;DHT22;57049;51.450;-2.516;2022-07-12T13:54:47;30.86;42.57
69776;DHT22;57049;51.450;-2.516;2022-07-12T13:57:13;30.30;42.56
69776;DHT22;57049;51.450;-2.516;2022-07-12T13:59:38;30.29;43.22
69776;DHT22;57049;51.450;-2.516;2022-07-12T14:02:05;30.33;42.24
69776;DHT22;57049;51.450;-2.516;2022-07-12T14:04:31;30.25;43.40
69776;DHT22;57049;51.450;-2.516;2022-07-12T14:06:57;30.18;45.50
69776;DHT22;57049;51.450;-2.516;2022-07-12T14:09:23;30.15;42.64
69776;DHT22;57049;51.450;-2.516;2022-07-12T14:11:48;29.81;44.51
69776;DHT22;57049;51.450;-2.516;2022-07-12T14:14:14;29.93;45.92
69776;DHT22;57049;51.450;-2.516;2022-07-12T14:16:39;29.99;44.97
69776;DHT22;57049;51.450;-2.516;2022-07-12T14:19:05;29.81;44.79
69776;DHT22;57049;51.450;-2.516;2022-07-12T14:21:31;29.54;42.95
69776;DHT22;57049;51.450;-2.516;2022-07-12T14:23:56;29.27;45.95
69776;DHT22;57049;51.450;-2.516;2022-07-12T14:26:28;29.23;44.72
69776;DHT22;57049;51.450;-2.516;2022-07-12T14:28:53;29.07;46.09
69776;DHT22;57049;51.450;-2.516;2022-07-12T14:31:19;28.73;47.29
69776;DHT22;57049;51.450;-2.516;2022-07-12T14:33:45;28.52;47.82
69776;DHT22;57049;51.450;-2.516;2022-07-12T14:36:10;28.59;47.50
69776;DHT22;57049;51.450;-2.516;2022-07-12T14:38:36;28.62;46.99
69776;DHT22;57049;51.450;-2.516;2022-07-12T14:41:02;28.39;47.62
69776;DHT22;57049;51.450;-2.516;2022-07-12T14:43:27;28.57;46.96
69776;DHT22;57049;51.450;-2.516;2022-07-12T14:45:53;28.66;47.36
69776;DHT22;57049;51.450;-2.516;2022-07-12T14:48:18;28.34;48.74
69776;DHT22;57049;51.450;-2.516;2022-07-12T14:50:44;28.08;48.90
69776;DHT22;57049;51.450;-2.516;2022-07-12T14:53:09;27.90;49.49
69776;DHT22;57049;51.450;-2.516;2022-07-12T14:55:35;27.65;50.42
69776;DHT22;57049;51.450;-2.516;2022-07-12T14:58:00;27.61;49.39
69776;DHT22;57049;51.450;-2.516;2022-07-12T15:00:27;27.61;49.82
69776;DHT22;57049;51.450;-2.516;2022-07-12T15:02:53;27.55;49.67
69776;DHT22;57049;51.450;-2.516;2022-07-12T15:05:24;27.54;48.76
69776;DHT22;57049;51.450;-2.516;2022-07-12T15:07:49;27.09;51.37
69776;DHT22;57049;51.450;-2.516;2022-07-12T15:10:14;27.00;50.65
69776;DHT22;57049;51.450;-2.516;2022-07-12T15:12:40;26.79;51.03
69776;DHT22;57049;51.450;-2.516;2022-07-12T15:15:06;26.91;50.40
69776;DHT22;57049;51.450;-2.516;2022-07-12T15:17:31;26.78;50.70
69776;DHT22;57049;51.450;-2.516;2022-07-12T15:19:57;26.71;51.34
69776;DHT22;57049;51.450;-2.516;2022-07-12T15:22:22;26.53;50.63
69776;DHT22;57049;51.450;-2.516;2022-07-12T15:24:48;26.62;50.09
69776;DHT22;57049;51.450;-2.516;2022-07-12T15:27:13;26.75;48.53
69776;DHT22;57049;51.450;-2.516;2022-07-12T15:29:39;26.44;47.66
69776;DHT22;57049;51.450;-2.516;2022-07-12T15:32:06;26.38;47.81
69776;DHT22;57049;51.450;-2.516;2022-07-12T15:34:32;26.63;47.70
69776;DHT22;57049;51.450;-2.516;2022-07-12T15:36:57;26.58;47.49
69776;DHT22;57049;51.450;-2.516;2022-07-12T15:39:23;26.63;46.96
69776;DHT22;57049;51.450;-2.516;2022-07-12T15:41:49;26.56;47.59
69776;DHT22;57049;51.450;-2.516;2022-07-12T15:44:16;26.48;47.05